Portada
METAR-TAF:

METAR-TAF

Aeroports :

Middle Peninsula Regional Airport

West Point, Virgínia, Estats Units d'Amèrica

latitud: 37-31-16N, longitud: 076-45-52W, altitud: 7 m

Observació

L'informe es va fer fa 59 minuts, a les 21:35 UTC
Vent calma
Temperatura 1°C
Humitat 51%
Pressió 1030 hPa
Visibilitat: 16.1 km
Cel clar

METAR: KFYJ 132135Z AUTO 00000KT 10SM CLR 01/M08 A3043 RMK AO1 T00091082

Hora: 17:34 (22:34 UTC)


TAF: manca

Observacions i pronòstics meteorològics de més de 4000 aeroports (METAR i TAF).

Les estacions disponibles són els punts grocs i vermells al mapa.

Posi el ratolí al punt desitjat per veure el nom de l'estació.

Feu clic per veure les observacions i els pronòstics meteorològics.

Per canviar el mapa: feu clic els botons verds amb una creu de color negre per apropar; al botó verd amb un guió per allunyar la imatge; o en les fletxes verdes per a mapes adjacents.


METAR-TAF: